sensor_id;sensor_type;location;lat;lon;timestamp;temperature;humidity
76967;DHT22;65904;52.278;20.972;2023-12-20T00:00:17;6.30;99.90
76967;DHT22;65904;52.278;20.972;2023-12-20T00:03:24;6.40;99.90
76967;DHT22;65904;52.278;20.972;2023-12-20T00:06:10;6.40;99.90
76967;DHT22;65904;52.278;20.972;2023-12-20T00:08:57;6.40;99.90
76967;DHT22;65904;52.278;20.972;2023-12-20T00:11:43;6.30;99.90
76967;DHT22;65904;52.278;20.972;2023-12-20T00:14:29;6.30;99.90
76967;DHT22;65904;52.278;20.972;2023-12-20T00:17:15;6.30;99.90
76967;DHT22;65904;52.278;20.972;2023-12-20T00:20:01;6.40;99.90
76967;DHT22;65904;52.278;20.972;2023-12-20T00:22:47;6.30;99.90
76967;DHT22;65904;52.278;20.972;2023-12-20T00:25:35;6.40;99.90
76967;DHT22;65904;52.278;20.972;2023-12-20T00:28:20;6.40;99.90
76967;DHT22;65904;52.278;20.972;2023-12-20T00:31:07;6.40;99.90
76967;DHT22;65904;52.278;20.972;2023-12-20T00:33:53;6.30;99.90
76967;DHT22;65904;52.278;20.972;2023-12-20T00:36:40;6.40;99.90
76967;DHT22;65904;52.278;20.972;2023-12-20T00:39:26;6.40;99.90
76967;DHT22;65904;52.278;20.972;2023-12-20T00:42:14;6.40;99.90
76967;DHT22;65904;52.278;20.972;2023-12-20T00:45:00;6.40;99.90
76967;DHT22;65904;52.278;20.972;2023-12-20T00:47:47;6.40;99.90
76967;DHT22;65904;52.278;20.972;2023-12-20T00:50:33;6.40;99.90
76967;DHT22;65904;52.278;20.972;2023-12-20T00:53:20;6.40;99.90
76967;DHT22;65904;52.278;20.972;2023-12-20T00:56:06;6.40;99.90
76967;DHT22;65904;52.278;20.972;2023-12-20T00:58:54;6.40;99.90
76967;DHT22;65904;52.278;20.972;2023-12-20T01:01:40;6.40;99.90
76967;DHT22;65904;52.278;20.972;2023-12-20T01:04:27;6.40;99.90
76967;DHT22;65904;52.278;20.972;2023-12-20T01:07:13;6.40;99.90
76967;DHT22;65904;52.278;20.972;2023-12-20T01:09:59;6.50;99.90
76967;DHT22;65904;52.278;20.972;2023-12-20T01:12:45;6.50;99.90
76967;DHT22;65904;52.278;20.972;2023-12-20T01:15:33;6.50;99.90
76967;DHT22;65904;52.278;20.972;2023-12-20T01:18:19;6.50;99.90
76967;DHT22;65904;52.278;20.972;2023-12-20T01:21:05;6.50;99.90
76967;DHT22;65904;52.278;20.972;2023-12-20T01:23:51;6.50;99.90
76967;DHT22;65904;52.278;20.972;2023-12-20T01:26:37;6.50;99.90
76967;DHT22;65904;52.278;20.972;2023-12-20T01:29:23;6.50;99.90
76967;DHT22;65904;52.278;20.972;2023-12-20T01:32:11;6.50;99.90
76967;DHT22;65904;52.278;20.972;2023-12-20T01:34:57;6.50;99.90
76967;DHT22;65904;52.278;20.972;2023-12-20T01:37:43;6.50;99.90
76967;DHT22;65904;52.278;20.972;2023-12-20T01:40:29;6.50;99.90
76967;DHT22;65904;52.278;20.972;2023-12-20T01:43:15;6.50;99.90
76967;DHT22;65904;52.278;20.972;2023-12-20T01:46:01;6.50;99.90
76967;DHT22;65904;52.278;20.972;2023-12-20T01:48:49;6.50;99.90
76967;DHT22;65904;52.278;20.972;2023-12-20T01:51:36;6.60;99.90
76967;DHT22;65904;52.278;20.972;2023-12-20T01:54:22;6.50;99.90
76967;DHT22;65904;52.278;20.972;2023-12-20T01:57:09;6.60;99.90
76967;DHT22;65904;52.278;20.972;2023-12-20T01:59:56;6.50;99.90
76967;DHT22;65904;52.278;20.972;2023-12-20T02:02:43;6.60;99.90
76967;DHT22;65904;52.278;20.972;2023-12-20T02:05:34;6.60;99.90
76967;DHT22;65904;52.278;20.972;2023-12-20T02:08:20;6.50;99.90
76967;DHT22;65904;52.278;20.972;2023-12-20T02:11:07;6.50;99.90
76967;DHT22;65904;52.278;20.972;2023-12-20T02:13:53;6.50;99.90
76967;DHT22;65904;52.278;20.972;2023-12-20T02:16:40;6.50;99.90
76967;DHT22;65904;52.278;20.972;2023-12-20T02:19:26;6.50;99.90
76967;DHT22;65904;52.278;20.972;2023-12-20T02:22:13;6.50;99.90
76967;DHT22;65904;52.278;20.972;2023-12-20T02:24:59;6.50;99.90
76967;DHT22;65904;52.278;20.972;2023-12-20T02:27:45;6.40;99.90
76967;DHT22;65904;52.278;20.972;2023-12-20T02:30:31;6.50;99.90
76967;DHT22;65904;52.278;20.972;2023-12-20T02:33:18;6.50;99.90
76967;DHT22;65904;52.278;20.972;2023-12-20T02:36:06;6.50;99.90
76967;DHT22;65904;52.278;20.972;2023-12-20T02:38:53;6.40;99.90
76967;DHT22;65904;52.278;20.972;2023-12-20T02:41:39;6.40;99.90
76967;DHT22;65904;52.278;20.972;2023-12-20T02:44:25;6.50;99.90
76967;DHT22;65904;52.278;20.972;2023-12-20T02:47:11;6.50;99.90
76967;DHT22;65904;52.278;20.972;2023-12-20T02:49:57;6.50;99.90
76967;DHT22;65904;52.278;20.972;2023-12-20T02:52:45;6.50;99.90
76967;DHT22;65904;52.278;20.972;2023-12-20T02:55:32;6.50;99.90
76967;DHT22;65904;52.278;20.972;2023-12-20T02:58:18;6.50;99.90
76967;DHT22;65904;52.278;20.972;2023-12-20T03:01:04;6.50;99.90
76967;DHT22;65904;52.278;20.972;2023-12-20T03:03:50;6.50;99.90
76967;DHT22;65904;52.278;20.972;2023-12-20T03:06:36;6.50;99.90
76967;DHT22;65904;52.278;20.972;2023-12-20T03:09:22;6.50;99.90
76967;DHT22;65904;52.278;20.972;2023-12-20T03:12:10;6.50;99.90
76967;DHT22;65904;52.278;20.972;2023-12-20T03:14:56;6.50;99.90
76967;DHT22;65904;52.278;20.972;2023-12-20T03:17:42;6.50;99.90
76967;DHT22;65904;52.278;20.972;2023-12-20T03:20:29;6.50;99.90
76967;DHT22;65904;52.278;20.972;2023-12-20T03:23:18;6.50;99.90
76967;DHT22;65904;52.278;20.972;2023-12-20T03:26:07;6.50;99.90
76967;DHT22;65904;52.278;20.972;2023-12-20T03:28:54;6.50;99.90
76967;DHT22;65904;52.278;20.972;2023-12-20T03:31:40;6.60;99.90
76967;DHT22;65904;52.278;20.972;2023-12-20T03:34:27;6.60;99.90
76967;DHT22;65904;52.278;20.972;2023-12-20T03:37:14;6.50;99.90
76967;DHT22;65904;52.278;20.972;2023-12-20T03:40:00;6.50;99.90
76967;DHT22;65904;52.278;20.972;2023-12-20T03:42:46;6.60;99.90
76967;DHT22;65904;52.278;20.972;2023-12-20T03:45:34;6.50;99.90
76967;DHT22;65904;52.278;20.972;2023-12-20T03:48:20;6.50;99.90
76967;DHT22;65904;52.278;20.972;2023-12-20T03:51:06;6.50;99.90
76967;DHT22;65904;52.278;20.972;2023-12-20T03:53:52;6.50;99.90
76967;DHT22;65904;52.278;20.972;2023-12-20T03:56:39;6.50;99.90
76967;DHT22;65904;52.278;20.972;2023-12-20T03:59:25;6.50;99.90
76967;DHT22;65904;52.278;20.972;2023-12-20T04:02:12;6.50;99.90
76967;DHT22;65904;52.278;20.972;2023-12-20T04:04:58;6.50;99.90
76967;DHT22;65904;52.278;20.972;2023-12-20T04:07:44;6.50;99.90
76967;DHT22;65904;52.278;20.972;2023-12-20T04:10:30;6.50;99.90
76967;DHT22;65904;52.278;20.972;2023-12-20T04:13:16;6.60;99.90
76967;DHT22;65904;52.278;20.972;2023-12-20T04:16:03;6.50;99.90
76967;DHT22;65904;52.278;20.972;2023-12-20T04:18:50;6.60;99.90
76967;DHT22;65904;52.278;20.972;2023-12-20T04:21:36;6.60;99.90
76967;DHT22;65904;52.278;20.972;2023-12-20T04:24:23;6.60;99.90
76967;DHT22;65904;52.278;20.972;2023-12-20T04:27:09;6.50;99.90
76967;DHT22;65904;52.278;20.972;2023-12-20T04:29:55;6.50;99.90
76967;DHT22;65904;52.278;20.972;2023-12-20T04:32:41;6.50;99.90
76967;DHT22;65904;52.278;20.972;2023-12-20T04:35:28;6.50;99.90
76967;DHT22;65904;52.278;20.972;2023-12-20T04:38:15;6.50;99.90
76967;DHT22;65904;52.278;20.972;2023-12-20T04:41:01;6.50;99.90
76967;DHT22;65904;52.278;20.972;2023-12-20T04:43:47;6.40;99.90
76967;DHT22;65904;52.278;20.972;2023-12-20T04:46:33;6.40;99.90
76967;DHT22;65904;52.278;20.972;2023-12-20T04:49:19;6.50;99.90
76967;DHT22;65904;52.278;20.972;2023-12-20T04:52:06;6.50;99.90
76967;DHT22;65904;52.278;20.972;2023-12-20T04:54:52;6.50;99.90
76967;DHT22;65904;52.278;20.972;2023-12-20T04:57:38;6.50;99.90
76967;DHT22;65904;52.278;20.972;2023-12-20T05:00:24;6.40;99.90
76967;DHT22;65904;52.278;20.972;2023-12-20T05:03:10;6.50;99.90
76967;DHT22;65904;52.278;20.972;2023-12-20T05:05:57;6.40;99.90
76967;DHT22;65904;52.278;20.972;2023-12-20T05:08:44;6.50;99.90
76967;DHT22;65904;52.278;20.972;2023-12-20T05:11:30;6.50;99.90
76967;DHT22;65904;52.278;20.972;2023-12-20T05:14:16;6.40;99.90
76967;DHT22;65904;52.278;20.972;2023-12-20T05:17:03;6.40;99.90
76967;DHT22;65904;52.278;20.972;2023-12-20T05:19:49;6.40;99.90
76967;DHT22;65904;52.278;20.972;2023-12-20T05:22:35;6.40;99.90
76967;DHT22;65904;52.278;20.972;2023-12-20T05:25:22;6.30;99.90
76967;DHT22;65904;52.278;20.972;2023-12-20T05:28:08;6.40;99.90
76967;DHT22;65904;52.278;20.972;2023-12-20T05:30:54;6.40;99.90
76967;DHT22;65904;52.278;20.972;2023-12-20T05:33:40;6.30;99.90
76967;DHT22;65904;52.278;20.972;2023-12-20T05:36:26;6.40;99.90
76967;DHT22;65904;52.278;20.972;2023-12-20T05:39:12;6.40;99.90
76967;DHT22;65904;52.278;20.972;2023-12-20T05:42:00;6.30;99.90
76967;DHT22;65904;52.278;20.972;2023-12-20T05:44:46;6.30;99.90
76967;DHT22;65904;52.278;20.972;2023-12-20T05:47:32;6.40;99.90
76967;DHT22;65904;52.278;20.972;2023-12-20T05:50:18;6.40;99.90
76967;DHT22;65904;52.278;20.972;2023-12-20T05:53:06;6.40;99.90
76967;DHT22;65904;52.278;20.972;2023-12-20T05:55:52;6.40;99.90
76967;DHT22;65904;52.278;20.972;2023-12-20T05:58:41;6.40;99.90
76967;DHT22;65904;52.278;20.972;2023-12-20T06:01:28;6.40;99.90
76967;DHT22;65904;52.278;20.972;2023-12-20T06:04:14;6.40;99.90
76967;DHT22;65904;52.278;20.972;2023-12-20T06:07:00;6.40;99.90
76967;DHT22;65904;52.278;20.972;2023-12-20T06:09:46;6.40;99.90
76967;DHT22;65904;52.278;20.972;2023-12-20T06:12:32;6.40;99.90
76967;DHT22;65904;52.278;20.972;2023-12-20T06:15:22;6.40;99.90
76967;DHT22;65904;52.278;20.972;2023-12-20T06:18:08;6.30;99.90
76967;DHT22;65904;52.278;20.972;2023-12-20T06:20:54;6.30;99.90
76967;DHT22;65904;52.278;20.972;2023-12-20T06:23:41;6.40;99.90
76967;DHT22;65904;52.278;20.972;2023-12-20T06:26:27;6.40;99.90
76967;DHT22;65904;52.278;20.972;2023-12-20T06:29:14;6.30;99.90
76967;DHT22;65904;52.278;20.972;2023-12-20T06:32:01;6.30;99.90
76967;DHT22;65904;52.278;20.972;2023-12-20T06:34:47;6.30;99.90
76967;DHT22;65904;52.278;20.972;2023-12-20T06:37:34;6.30;99.90
76967;DHT22;65904;52.278;20.972;2023-12-20T06:40:20;6.30;99.90
76967;DHT22;65904;52.278;20.972;2023-12-20T06:43:06;6.30;99.90
76967;DHT22;65904;52.278;20.972;2023-12-20T06:45:52;6.30;99.90
76967;DHT22;65904;52.278;20.972;2023-12-20T06:48:39;6.30;99.90
76967;DHT22;65904;52.278;20.972;2023-12-20T06:51:26;6.30;99.90
76967;DHT22;65904;52.278;20.972;2023-12-20T06:54:12;6.30;99.90
76967;DHT22;65904;52.278;20.972;2023-12-20T06:56:58;6.30;99.90
76967;DHT22;65904;52.278;20.972;2023-12-20T06:59:44;6.30;99.90
76967;DHT22;65904;52.278;20.972;2023-12-20T07:02:30;6.30;99.90
76967;DHT22;65904;52.278;20.972;2023-12-20T07:05:18;6.30;99.90
76967;DHT22;65904;52.278;20.972;2023-12-20T07:08:05;6.30;99.90
76967;DHT22;65904;52.278;20.972;2023-12-20T07:10:52;6.30;99.90
76967;DHT22;65904;52.278;20.972;2023-12-20T07:13:39;6.30;99.90
76967;DHT22;65904;52.278;20.972;2023-12-20T07:16:25;6.20;99.90
76967;DHT22;65904;52.278;20.972;2023-12-20T07:19:11;6.20;99.90
76967;DHT22;65904;52.278;20.972;2023-12-20T07:21:58;6.30;99.90
76967;DHT22;65904;52.278;20.972;2023-12-20T07:24:44;6.30;99.90
76967;DHT22;65904;52.278;20.972;2023-12-20T07:27:31;6.30;99.90
76967;DHT22;65904;52.278;20.972;2023-12-20T07:30:17;6.30;99.90
76967;DHT22;65904;52.278;20.972;2023-12-20T07:33:04;6.30;99.90
76967;DHT22;65904;52.278;20.972;2023-12-20T07:35:52;6.30;99.90
76967;DHT22;65904;52.278;20.972;2023-12-20T07:38:40;6.30;99.90
76967;DHT22;65904;52.278;20.972;2023-12-20T07:41:26;6.40;99.90
76967;DHT22;65904;52.278;20.972;2023-12-20T07:44:12;6.40;99.90
76967;DHT22;65904;52.278;20.972;2023-12-20T07:46:59;6.30;99.90
76967;DHT22;65904;52.278;20.972;2023-12-20T07:49:46;6.40;99.90
76967;DHT22;65904;52.278;20.972;2023-12-20T07:52:32;6.30;99.90
76967;DHT22;65904;52.278;20.972;2023-12-20T07:55:19;6.30;99.90
76967;DHT22;65904;52.278;20.972;2023-12-20T07:58:05;6.30;99.90
76967;DHT22;65904;52.278;20.972;2023-12-20T08:00:52;6.40;99.90
76967;DHT22;65904;52.278;20.972;2023-12-20T08:03:38;6.40;99.90
76967;DHT22;65904;52.278;20.972;2023-12-20T08:06:24;6.30;99.90
76967;DHT22;65904;52.278;20.972;2023-12-20T08:09:10;6.30;99.90
76967;DHT22;65904;52.278;20.972;2023-12-20T08:11:58;6.30;99.90
76967;DHT22;65904;52.278;20.972;2023-12-20T08:14:44;6.30;99.90
76967;DHT22;65904;52.278;20.972;2023-12-20T08:17:31;6.30;99.90
76967;DHT22;65904;52.278;20.972;2023-12-20T08:20:16;6.30;99.90
76967;DHT22;65904;52.278;20.972;2023-12-20T08:23:03;6.30;99.90
76967;DHT22;65904;52.278;20.972;2023-12-20T08:25:49;6.30;99.90
76967;DHT22;65904;52.278;20.972;2023-12-20T08:28:38;6.30;99.90
76967;DHT22;65904;52.278;20.972;2023-12-20T08:31:24;6.40;99.90
76967;DHT22;65904;52.278;20.972;2023-12-20T08:34:11;6.40;99.90
76967;DHT22;65904;52.278;20.972;2023-12-20T08:36:59;6.30;99.90
76967;DHT22;65904;52.278;20.972;2023-12-20T08:39:45;6.40;99.90
76967;DHT22;65904;52.278;20.972;2023-12-20T08:42:31;6.30;99.90
76967;DHT22;65904;52.278;20.972;2023-12-20T08:45:18;6.40;99.90
76967;DHT22;65904;52.278;20.972;2023-12-20T08:48:05;6.40;99.90
76967;DHT22;65904;52.278;20.972;2023-12-20T08:50:52;6.40;99.90
76967;DHT22;65904;52.278;20.972;2023-12-20T08:53:38;6.40;99.90
76967;DHT22;65904;52.278;20.972;2023-12-20T08:56:24;6.40;99.90
76967;DHT22;65904;52.278;20.972;2023-12-20T08:59:10;6.40;99.90
76967;DHT22;65904;52.278;20.972;2023-12-20T09:01:58;6.40;99.90
76967;DHT22;65904;52.278;20.972;2023-12-20T09:04:44;6.40;99.90
76967;DHT22;65904;52.278;20.972;2023-12-20T09:07:31;6.40;99.90
76967;DHT22;65904;52.278;20.972;2023-12-20T09:10:17;6.40;99.90
76967;DHT22;65904;52.278;20.972;2023-12-20T09:13:07;6.40;99.90
76967;DHT22;65904;52.278;20.972;2023-12-20T09:15:53;6.40;99.90
76967;DHT22;65904;52.278;20.972;2023-12-20T09:18:41;6.40;99.90
76967;DHT22;65904;52.278;20.972;2023-12-20T09:21:27;6.40;99.90
76967;DHT22;65904;52.278;20.972;2023-12-20T09:24:13;6.40;99.90
76967;DHT22;65904;52.278;20.972;2023-12-20T09:26:59;6.40;99.90
76967;DHT22;65904;52.278;20.972;2023-12-20T09:29:45;6.30;99.90
76967;DHT22;65904;52.278;20.972;2023-12-20T09:32:32;6.40;99.90
76967;DHT22;65904;52.278;20.972;2023-12-20T09:35:20;6.30;99.90
76967;DHT22;65904;52.278;20.972;2023-12-20T09:38:07;6.30;99.90
76967;DHT22;65904;52.278;20.972;2023-12-20T09:40:53;6.30;99.90
76967;DHT22;65904;52.278;20.972;2023-12-20T09:43:41;6.40;99.90
76967;DHT22;65904;52.278;20.972;2023-12-20T09:46:29;6.40;99.90
76967;DHT22;65904;52.278;20.972;2023-12-20T09:49:19;6.40;99.90
76967;DHT22;65904;52.278;20.972;2023-12-20T09:52:08;6.50;99.90
76967;DHT22;65904;52.278;20.972;2023-12-20T09:54:55;6.50;99.90
76967;DHT22;65904;52.278;20.972;2023-12-20T09:57:43;6.50;99.90
76967;DHT22;65904;52.278;20.972;2023-12-20T10:00:29;6.40;99.90
76967;DHT22;65904;52.278;20.972;2023-12-20T10:03:15;6.40;99.90
76967;DHT22;65904;52.278;20.972;2023-12-20T10:06:02;6.40;99.90
76967;DHT22;65904;52.278;20.972;2023-12-20T10:08:49;6.40;99.90
76967;DHT22;65904;52.278;20.972;2023-12-20T10:11:36;6.40;99.90
76967;DHT22;65904;52.278;20.972;2023-12-20T10:14:23;6.50;99.90
76967;DHT22;65904;52.278;20.972;2023-12-20T10:17:09;6.50;99.90
76967;DHT22;65904;52.278;20.972;2023-12-20T10:19:56;6.50;99.90
76967;DHT22;65904;52.278;20.972;2023-12-20T10:22:42;6.50;99.90
76967;DHT22;65904;52.278;20.972;2023-12-20T10:25:30;6.40;99.90
76967;DHT22;65904;52.278;20.972;2023-12-20T10:28:16;6.40;99.90
76967;DHT22;65904;52.278;20.972;2023-12-20T10:31:04;6.40;99.90
76967;DHT22;65904;52.278;20.972;2023-12-20T10:33:50;6.40;99.90
76967;DHT22;65904;52.278;20.972;2023-12-20T10:36:37;6.40;99.90
76967;DHT22;65904;52.278;20.972;2023-12-20T10:39:23;6.40;99.90
76967;DHT22;65904;52.278;20.972;2023-12-20T10:42:11;6.40;99.90
76967;DHT22;65904;52.278;20.972;2023-12-20T10:44:59;6.40;99.90
76967;DHT22;65904;52.278;20.972;2023-12-20T10:47:46;6.40;99.90
76967;DHT22;65904;52.278;20.972;2023-12-20T10:50:33;6.40;99.90
76967;DHT22;65904;52.278;20.972;2023-12-20T10:53:24;6.40;99.90
76967;DHT22;65904;52.278;20.972;2023-12-20T10:56:14;6.40;99.90
76967;DHT22;65904;52.278;20.972;2023-12-20T10:59:04;6.40;99.90
76967;DHT22;65904;52.278;20.972;2023-12-20T11:01:54;6.40;99.90
76967;DHT22;65904;52.278;20.972;2023-12-20T11:04:47;6.40;99.90
76967;DHT22;65904;52.278;20.972;2023-12-20T11:07:38;6.40;99.90
76967;DHT22;65904;52.278;20.972;2023-12-20T11:10:30;6.40;99.90
76967;DHT22;65904;52.278;20.972;2023-12-20T11:13:21;6.40;99.90
76967;DHT22;65904;52.278;20.972;2023-12-20T11:16:10;6.40;99.90
76967;DHT22;65904;52.278;20.972;2023-12-20T11:18:56;6.40;99.90
76967;DHT22;65904;52.278;20.972;2023-12-20T11:21:42;6.50;99.90
76967;DHT22;65904;52.278;20.972;2023-12-20T11:24:28;6.50;99.90
76967;DHT22;65904;52.278;20.972;2023-12-20T11:27:14;6.50;99.90
76967;DHT22;65904;52.278;20.972;2023-12-20T11:30:03;6.50;99.90
76967;DHT22;65904;52.278;20.972;2023-12-20T11:32:52;6.50;99.90
76967;DHT22;65904;52.278;20.972;2023-12-20T11:35:39;6.50;99.90
76967;DHT22;65904;52.278;20.972;2023-12-20T11:38:26;6.50;99.90
76967;DHT22;65904;52.278;20.972;2023-12-20T11:41:12;6.50;99.90
76967;DHT22;65904;52.278;20.972;2023-12-20T11:43:58;6.50;99.90
76967;DHT22;65904;52.278;20.972;2023-12-20T11:46:45;6.50;99.90
76967;DHT22;65904;52.278;20.972;2023-12-20T11:49:33;6.40;99.90
76967;DHT22;65904;52.278;20.972;2023-12-20T11:52:19;6.40;99.90
76967;DHT22;65904;52.278;20.972;2023-12-20T11:55:06;6.50;99.90
76967;DHT22;65904;52.278;20.972;2023-12-20T11:57:52;6.50;99.90
76967;DHT22;65904;52.278;20.972;2023-12-20T12:00:39;6.40;99.90
76967;DHT22;65904;52.278;20.972;2023-12-20T12:03:25;6.40;99.90
76967;DHT22;65904;52.278;20.972;2023-12-20T12:06:12;6.50;99.90
76967;DHT22;65904;52.278;20.972;2023-12-20T12:08:58;6.40;99.90
76967;DHT22;65904;52.278;20.972;2023-12-20T12:11:44;6.40;99.90
76967;DHT22;65904;52.278;20.972;2023-12-20T12:14:30;6.40;99.90
76967;DHT22;65904;52.278;20.972;2023-12-20T12:17:17;6.40;99.90
76967;DHT22;65904;52.278;20.972;2023-12-20T12:20:06;6.40;99.90
76967;DHT22;65904;52.278;20.972;2023-12-20T12:23:01;6.40;99.90
76967;DHT22;65904;52.278;20.972;2023-12-20T12:25:47;6.40;99.90
76967;DHT22;65904;52.278;20.972;2023-12-20T12:28:34;6.40;99.90
76967;DHT22;65904;52.278;20.972;2023-12-20T12:31:20;6.30;99.90
76967;DHT22;65904;52.278;20.972;2023-12-20T12:34:07;6.30;99.90
76967;DHT22;65904;52.278;20.972;2023-12-20T12:36:55;6.30;99.90
76967;DHT22;65904;52.278;20.972;2023-12-20T12:39:42;6.30;99.90
76967;DHT22;65904;52.278;20.972;2023-12-20T12:42:28;6.30;99.90
76967;DHT22;65904;52.278;20.972;2023-12-20T12:45:15;6.30;99.90
76967;DHT22;65904;52.278;20.972;2023-12-20T12:48:01;6.30;99.90
76967;DHT22;65904;52.278;20.972;2023-12-20T12:50:47;6.30;99.90
76967;DHT22;65904;52.278;20.972;2023-12-20T12:53:33;6.20;99.90
76967;DHT22;65904;52.278;20.972;2023-12-20T12:56:20;6.20;99.90
76967;DHT22;65904;52.278;20.972;2023-12-20T12:59:08;6.20;99.90
76967;DHT22;65904;52.278;20.972;2023-12-20T13:01:55;6.20;99.90
76967;DHT22;65904;52.278;20.972;2023-12-20T13:04:41;6.20;99.90
76967;DHT22;65904;52.278;20.972;2023-12-20T13:07:28;6.20;99.90
76967;DHT22;65904;52.278;20.972;2023-12-20T13:10:14;6.20;99.90
76967;DHT22;65904;52.278;20.972;2023-12-20T13:13:02;6.20;99.90
76967;DHT22;65904;52.278;20.972;2023-12-20T13:15:48;6.10;99.90
76967;DHT22;65904;52.278;20.972;2023-12-20T13:18:39;6.10;99.90
76967;DHT22;65904;52.278;20.972;2023-12-20T13:21:27;6.20;99.90
76967;DHT22;65904;52.278;20.972;2023-12-20T13:24:13;6.20;99.90
76967;DHT22;65904;52.278;20.972;2023-12-20T13:27:00;6.10;99.90
76967;DHT22;65904;52.278;20.972;2023-12-20T13:29:47;6.20;99.90
76967;DHT22;65904;52.278;20.972;2023-12-20T13:32:33;6.20;99.90
76967;DHT22;65904;52.278;20.972;2023-12-20T13:35:20;6.20;99.90
76967;DHT22;65904;52.278;20.972;2023-12-20T13:38:06;6.20;99.90
76967;DHT22;65904;52.278;20.972;2023-12-20T13:40:52;6.20;99.90
76967;DHT22;65904;52.278;20.972;2023-12-20T13:43:38;6.20;99.90
76967;DHT22;65904;52.278;20.972;2023-12-20T13:46:26;6.10;99.90
76967;DHT22;65904;52.278;20.972;2023-12-20T13:49:12;6.10;99.90
76967;DHT22;65904;52.278;20.972;2023-12-20T13:51:59;6.10;99.90
76967;DHT22;65904;52.278;20.972;2023-12-20T13:54:45;6.00;99.90
76967;DHT22;65904;52.278;20.972;2023-12-20T13:57:31;6.00;99.90
76967;DHT22;65904;52.278;20.972;2023-12-20T14:00:17;6.00;99.90
76967;DHT22;65904;52.278;20.972;2023-12-20T14:03:05;6.00;99.90
76967;DHT22;65904;52.278;20.972;2023-12-20T14:05:51;6.00;99.90
76967;DHT22;65904;52.278;20.972;2023-12-20T14:08:37;6.00;99.90
76967;DHT22;65904;52.278;20.972;2023-12-20T14:11:23;6.00;99.90
76967;DHT22;65904;52.278;20.972;2023-12-20T14:14:09;6.00;99.90
76967;DHT22;65904;52.278;20.972;2023-12-20T14:16:55;6.00;99.90
76967;DHT22;65904;52.278;20.972;2023-12-20T14:19:42;6.00;99.90
76967;DHT22;65904;52.278;20.972;2023-12-20T14:22:28;6.00;99.90
76967;DHT22;65904;52.278;20.972;2023-12-20T14:25:15;6.00;99.90
76967;DHT22;65904;52.278;20.972;2023-12-20T14:28:01;6.00;99.90
76967;DHT22;65904;52.278;20.972;2023-12-20T14:30:47;6.00;99.90
76967;DHT22;65904;52.278;20.972;2023-12-20T14:33:33;6.00;99.90
76967;DHT22;65904;52.278;20.972;2023-12-20T14:36:21;6.00;99.90
76967;DHT22;65904;52.278;20.972;2023-12-20T14:39:07;6.00;99.90
76967;DHT22;65904;52.278;20.972;2023-12-20T14:41:53;5.90;99.90
76967;DHT22;65904;52.278;20.972;2023-12-20T14:44:40;5.90;99.90
76967;DHT22;65904;52.278;20.972;2023-12-20T14:47:26;5.90;99.90
76967;DHT22;65904;52.278;20.972;2023-12-20T14:50:13;5.80;99.90
76967;DHT22;65904;52.278;20.972;2023-12-20T14:53:04;5.90;99.90
76967;DHT22;65904;52.278;20.972;2023-12-20T14:55:51;5.80;99.90
76967;DHT22;65904;52.278;20.972;2023-12-20T14:58:37;5.80;99.90
76967;DHT22;65904;52.278;20.972;2023-12-20T15:01:23;5.80;99.90
76967;DHT22;65904;52.278;20.972;2023-12-20T15:04:09;5.80;99.90
76967;DHT22;65904;52.278;20.972;2023-12-20T15:06:56;5.80;99.90
76967;DHT22;65904;52.278;20.972;2023-12-20T15:09:44;5.80;99.90
76967;DHT22;65904;52.278;20.972;2023-12-20T15:12:32;5.80;99.90
76967;DHT22;65904;52.278;20.972;2023-12-20T15:15:19;5.80;99.90
76967;DHT22;65904;52.278;20.972;2023-12-20T15:18:05;5.80;99.90
76967;DHT22;65904;52.278;20.972;2023-12-20T15:20:51;5.70;99.90
76967;DHT22;65904;52.278;20.972;2023-12-20T15:23:37;5.70;99.90
76967;DHT22;65904;52.278;20.972;2023-12-20T15:26:27;5.70;99.90
76967;DHT22;65904;52.278;20.972;2023-12-20T15:29:13;5.70;99.90
76967;DHT22;65904;52.278;20.972;2023-12-20T15:32:01;5.70;99.90
76967;DHT22;65904;52.278;20.972;2023-12-20T15:34:48;5.70;99.90
76967;DHT22;65904;52.278;20.972;2023-12-20T15:37:34;5.70;99.90
76967;DHT22;65904;52.278;20.972;2023-12-20T15:40:21;5.70;99.90
76967;DHT22;65904;52.278;20.972;2023-12-20T15:43:08;5.70;99.90
76967;DHT22;65904;52.278;20.972;2023-12-20T15:45:54;5.80;99.90
76967;DHT22;65904;52.278;20.972;2023-12-20T15:48:40;5.70;99.90
76967;DHT22;65904;52.278;20.972;2023-12-20T15:51:27;5.70;99.90
76967;DHT22;65904;52.278;20.972;2023-12-20T15:54:13;5.70;99.90
76967;DHT22;65904;52.278;20.972;2023-12-20T15:56:59;5.70;99.90
76967;DHT22;65904;52.278;20.972;2023-12-20T15:59:47;5.70;99.90
76967;DHT22;65904;52.278;20.972;2023-12-20T16:02:34;5.70;99.90
76967;DHT22;65904;52.278;20.972;2023-12-20T16:05:21;5.70;99.90
76967;DHT22;65904;52.278;20.972;2023-12-20T16:08:07;5.70;99.90
76967;DHT22;65904;52.278;20.972;2023-12-20T16:10:53;5.70;99.90
76967;DHT22;65904;52.278;20.972;2023-12-20T16:13:39;5.70;99.90
76967;DHT22;65904;52.278;20.972;2023-12-20T16:16:27;5.70;99.90
76967;DHT22;65904;52.278;20.972;2023-12-20T16:19:14;5.70;99.90
76967;DHT22;65904;52.278;20.972;2023-12-20T16:22:00;5.70;99.90
76967;DHT22;65904;52.278;20.972;2023-12-20T16:24:46;5.70;99.90
76967;DHT22;65904;52.278;20.972;2023-12-20T16:27:33;5.80;99.90
76967;DHT22;65904;52.278;20.972;2023-12-20T16:30:19;5.80;99.90
76967;DHT22;65904;52.278;20.972;2023-12-20T16:33:07;5.70;99.90
76967;DHT22;65904;52.278;20.972;2023-12-20T16:35:54;5.70;99.90
76967;DHT22;65904;52.278;20.972;2023-12-20T16:38:41;5.70;99.90
76967;DHT22;65904;52.278;20.972;2023-12-20T16:41:27;5.70;99.90
76967;DHT22;65904;52.278;20.972;2023-12-20T16:44:13;5.70;99.90
76967;DHT22;65904;52.278;20.972;2023-12-20T16:46:59;5.70;99.90
76967;DHT22;65904;52.278;20.972;2023-12-20T16:49:47;5.70;99.90
76967;DHT22;65904;52.278;20.972;2023-12-20T16:52:33;5.70;99.90
76967;DHT22;65904;52.278;20.972;2023-12-20T16:55:19;5.70;99.90
76967;DHT22;65904;52.278;20.972;2023-12-20T16:58:05;5.70;99.90
76967;DHT22;65904;52.278;20.972;2023-12-20T17:00:51;5.80;99.90
76967;DHT22;65904;52.278;20.972;2023-12-20T17:03:37;5.80;99.90
76967;DHT22;65904;52.278;20.972;2023-12-20T17:06:25;5.70;99.90
76967;DHT22;65904;52.278;20.972;2023-12-20T17:09:11;5.70;99.90
76967;DHT22;65904;52.278;20.972;2023-12-20T17:11:57;5.70;99.90
76967;DHT22;65904;52.278;20.972;2023-12-20T17:14:44;5.70;99.90
76967;DHT22;65904;52.278;20.972;2023-12-20T17:17:30;5.70;99.90
76967;DHT22;65904;52.278;20.972;2023-12-20T17:20:15;5.70;99.90
76967;DHT22;65904;52.278;20.972;2023-12-20T17:23:03;5.70;99.90
76967;DHT22;65904;52.278;20.972;2023-12-20T17:25:49;5.70;99.90
76967;DHT22;65904;52.278;20.972;2023-12-20T17:28:35;5.70;99.90
76967;DHT22;65904;52.278;20.972;2023-12-20T17:31:21;5.60;99.90